createdAt,value
2023-03-13T00:01:23.495Z,3.09
2023-03-13T00:03:49.994Z,2.82
2023-03-13T00:06:17.989Z,2.98
2023-03-13T00:08:44.828Z,2.96
2023-03-13T00:11:13.781Z,3.04
2023-03-13T00:13:40.553Z,3.11
2023-03-13T00:16:16.093Z,3.07
2023-03-13T00:18:47.210Z,2.99
2023-03-13T00:21:13.895Z,3.05
2023-03-13T00:23:40.446Z,3.11
2023-03-13T00:26:09.652Z,3.20
2023-03-13T00:28:38.292Z,3.34
2023-03-13T00:31:13.937Z,3.32
2023-03-13T00:33:43.178Z,3.11
2023-03-13T00:36:18.948Z,2.97
2023-03-13T00:38:46.445Z,3.01
2023-03-13T00:41:18.320Z,3.15
2023-03-13T00:43:46.265Z,2.88
2023-03-13T00:46:16.490Z,2.53
2023-03-13T00:48:43.906Z,2.99
2023-03-13T00:51:11.497Z,2.90
2023-03-13T00:53:38.115Z,2.58
2023-03-13T00:56:12.977Z,2.53
2023-03-13T00:58:41.995Z,2.69
2023-03-13T01:01:10.855Z,2.57
2023-03-13T01:03:38.258Z,2.74
2023-03-13T01:06:07.750Z,2.56
2023-03-13T01:08:34.285Z,2.50
2023-03-13T01:11:12.177Z,2.66
2023-03-13T01:13:39.137Z,2.67
2023-03-13T01:16:12.721Z,2.76
2023-03-13T01:18:41.333Z,2.33
2023-03-13T01:21:08.035Z,2.17
2023-03-13T01:23:34.712Z,1.88
2023-03-13T01:26:01.298Z,1.95
2023-03-13T01:28:28.080Z,2.04
2023-03-13T01:30:54.590Z,2.25
2023-03-13T01:33:21.199Z,2.16
2023-03-13T01:35:47.958Z,2.04
2023-03-13T01:38:14.740Z,1.91
2023-03-13T01:40:44.345Z,1.99
2023-03-13T01:43:27.505Z,2.08
2023-03-13T01:46:00.241Z,2.34
2023-03-13T01:48:37.636Z,2.14
2023-03-13T01:51:10.112Z,2.22
2023-03-13T01:53:43.586Z,2.23
2023-03-13T01:56:17.001Z,2.09
2023-03-13T01:58:43.639Z,2.03
2023-03-13T02:01:12.007Z,2.05
2023-03-13T02:03:38.784Z,1.99
2023-03-13T02:06:08.200Z,2.16
2023-03-13T02:08:41.835Z,2.18
2023-03-13T02:11:32.693Z,1.83
2023-03-13T02:14:02.112Z,1.91
2023-03-13T02:16:29.382Z,1.70
2023-03-13T02:18:55.888Z,1.70
2023-03-13T02:21:48.410Z,1.52
2023-03-13T02:24:25.815Z,1.76
2023-03-13T02:26:52.548Z,1.73
2023-03-13T02:29:19.219Z,1.56
2023-03-13T02:31:47.606Z,1.43
2023-03-13T02:34:21.349Z,1.60
2023-03-13T02:36:49.865Z,1.55
2023-03-13T02:39:22.326Z,1.54
2023-03-13T02:41:52.209Z,1.57
2023-03-13T02:44:18.713Z,1.45
2023-03-13T02:46:48.133Z,1.42
2023-03-13T02:49:22.611Z,1.47
2023-03-13T02:51:50.083Z,1.58
2023-03-13T02:54:21.888Z,1.59
2023-03-13T02:56:55.532Z,1.59
2023-03-13T02:59:22.173Z,1.39
2023-03-13T03:01:49.093Z,1.62
2023-03-13T03:04:15.705Z,1.59
2023-03-13T03:06:42.250Z,1.39
2023-03-13T03:09:08.710Z,1.51
2023-03-13T03:11:35.286Z,1.57
2023-03-13T03:14:02.264Z,1.37
2023-03-13T03:16:28.920Z,1.28
2023-03-13T03:18:55.604Z,1.25
2023-03-13T03:21:22.111Z,1.31
2023-03-13T03:23:48.586Z,1.37
2023-03-13T03:26:15.662Z,1.42
2023-03-13T03:28:42.160Z,1.40
2023-03-13T03:31:11.855Z,1.48
2023-03-13T03:33:39.728Z,1.79
2023-03-13T03:36:09.736Z,1.83
2023-03-13T03:38:37.440Z,1.95
2023-03-13T03:41:03.962Z,1.71
2023-03-13T03:43:30.458Z,1.40
2023-03-13T03:45:57.480Z,1.48
2023-03-13T03:48:24.120Z,1.61
2023-03-13T03:50:50.692Z,1.72
2023-03-13T03:53:17.164Z,1.70
2023-03-13T03:55:44.414Z,1.84
2023-03-13T03:58:11.022Z,1.76
2023-03-13T04:00:37.725Z,1.68
2023-03-13T04:03:04.262Z,1.78
2023-03-13T04:05:30.804Z,1.86
2023-03-13T04:07:57.257Z,1.84
2023-03-13T04:10:23.731Z,1.70
2023-03-13T04:12:50.254Z,1.90
2023-03-13T04:15:16.759Z,1.83
2023-03-13T04:17:43.261Z,1.94
2023-03-13T04:20:13.018Z,1.83
2023-03-13T04:22:40.834Z,2.02
2023-03-13T04:25:10.697Z,4.45
2023-03-13T04:27:37.221Z,3.16
2023-03-13T04:30:04.151Z,2.85
2023-03-13T04:32:30.882Z,2.74
2023-03-13T04:34:57.431Z,2.90
2023-03-13T04:37:23.991Z,2.79
2023-03-13T04:39:50.493Z,2.62
2023-03-13T04:42:17.000Z,2.57
2023-03-13T04:44:43.879Z,2.30
2023-03-13T04:47:10.520Z,2.06
2023-03-13T04:49:37.013Z,1.87
2023-03-13T04:52:03.577Z,1.96
2023-03-13T04:54:30.143Z,1.89
2023-03-13T04:56:56.602Z,1.94
2023-03-13T04:59:23.185Z,1.84
2023-03-13T05:01:49.761Z,1.88
2023-03-13T05:04:16.388Z,1.90
2023-03-13T05:06:42.879Z,1.91
2023-03-13T05:09:09.334Z,1.90
2023-03-13T05:11:35.998Z,1.96
2023-03-13T05:14:02.495Z,1.99
2023-03-13T05:16:28.973Z,1.84
2023-03-13T05:18:55.592Z,1.80
2023-03-13T05:21:22.094Z,1.77
2023-03-13T05:23:48.579Z,1.69
2023-03-13T05:26:15.038Z,1.66
2023-03-13T05:28:41.539Z,1.84
2023-03-13T05:31:08.124Z,1.90
2023-03-13T05:33:34.647Z,1.89
2023-03-13T05:36:01.316Z,1.77
2023-03-13T05:38:27.911Z,1.72
2023-03-13T05:40:54.388Z,1.88
2023-03-13T05:43:20.902Z,1.77
2023-03-13T05:45:47.384Z,1.91
2023-03-13T05:48:13.871Z,1.75
2023-03-13T05:50:40.373Z,1.71
2023-03-13T05:53:06.850Z,1.81
2023-03-13T05:55:33.677Z,1.69
2023-03-13T05:58:00.303Z,1.76
2023-03-13T06:00:26.815Z,1.80
2023-03-13T06:02:53.301Z,1.72
2023-03-13T06:05:19.790Z,1.55
2023-03-13T06:07:46.290Z,1.74
2023-03-13T06:10:12.784Z,1.58
2023-03-13T06:12:39.257Z,1.64
2023-03-13T06:15:06.357Z,1.91
2023-03-13T06:17:32.888Z,1.65
2023-03-13T06:19:59.385Z,1.67
2023-03-13T06:22:25.977Z,1.55
2023-03-13T06:24:54.902Z,1.66
2023-03-13T06:27:21.418Z,1.53
2023-03-13T06:29:58.397Z,1.82
2023-03-13T06:32:25.173Z,1.75
2023-03-13T06:34:51.941Z,1.64
2023-03-13T06:37:18.430Z,1.65
2023-03-13T06:39:44.988Z,1.73
2023-03-13T06:42:11.492Z,1.54
2023-03-13T06:44:38.114Z,1.96
2023-03-13T06:47:04.728Z,1.82
2023-03-13T06:49:31.357Z,1.55
2023-03-13T06:51:58.558Z,1.58
2023-03-13T06:54:25.377Z,1.71
2023-03-13T06:56:51.897Z,1.51
2023-03-13T06:59:18.409Z,1.68
2023-03-13T07:01:44.968Z,1.58
2023-03-13T07:04:13.676Z,1.62
2023-03-13T07:06:40.208Z,1.54
2023-03-13T07:09:06.683Z,1.57
2023-03-13T07:11:33.202Z,1.54
2023-03-13T07:14:13.613Z,1.42
2023-03-13T07:16:43.023Z,1.52
2023-03-13T07:19:09.703Z,1.58
2023-03-13T07:21:36.230Z,2.53
2023-03-13T07:24:03.024Z,2.03
2023-03-13T07:26:29.560Z,1.66
2023-03-13T07:28:56.515Z,1.78
2023-03-13T07:31:23.043Z,1.68
2023-03-13T07:33:49.670Z,2.42
2023-03-13T07:36:16.320Z,1.87
2023-03-13T07:38:43.125Z,1.93
2023-03-13T07:41:12.800Z,1.60
2023-03-13T07:43:39.319Z,1.54
2023-03-13T07:46:09.401Z,1.47
2023-03-13T07:48:38.187Z,2.14
2023-03-13T07:51:13.332Z,1.62
2023-03-13T07:53:39.858Z,1.40
2023-03-13T07:56:10.736Z,1.51
2023-03-13T07:58:39.864Z,1.47
2023-03-13T08:01:27.831Z,1.36
2023-03-13T08:03:55.724Z,1.87
2023-03-13T08:06:25.018Z,1.82
2023-03-13T08:08:52.812Z,1.64
2023-03-13T08:11:22.210Z,1.70
2023-03-13T08:13:48.711Z,1.82
2023-03-13T08:16:18.491Z,1.98
2023-03-13T08:18:47.467Z,2.01
2023-03-13T08:21:22.360Z,2.76
2023-03-13T08:23:52.989Z,1.60
2023-03-13T08:26:21.649Z,1.52
2023-03-13T08:28:53.622Z,1.18
2023-03-13T08:31:26.707Z,1.56
2023-03-13T08:33:53.687Z,1.80
2023-03-13T08:36:23.833Z,1.49
2023-03-13T08:38:52.750Z,1.58
2023-03-13T08:41:32.264Z,1.89
2023-03-13T08:43:58.828Z,1.55
2023-03-13T08:46:26.364Z,1.55
2023-03-13T08:48:54.830Z,1.71
2023-03-13T08:51:24.350Z,1.07
2023-03-13T08:53:52.350Z,1.15
2023-03-13T08:56:21.602Z,2.02
2023-03-13T08:58:52.790Z,1.71
2023-03-13T09:01:21.611Z,1.73
2023-03-13T09:03:48.489Z,1.34
2023-03-13T09:06:15.112Z,1.22
2023-03-13T09:08:44.132Z,1.12
2023-03-13T09:11:13.909Z,1.19
2023-03-13T09:13:46.562Z,1.70
2023-03-13T09:16:17.262Z,1.54
2023-03-13T09:18:44.774Z,1.07
2023-03-13T09:21:23.745Z,1.17
2023-03-13T09:23:51.604Z,1.31
2023-03-13T09:26:22.814Z,1.23
2023-03-13T09:28:51.072Z,1.14
2023-03-13T09:31:23.786Z,1.11
2023-03-13T09:33:51.316Z,1.47
2023-03-13T09:36:22.012Z,1.48
2023-03-13T09:38:56.878Z,1.47
2023-03-13T09:41:29.566Z,1.59
2023-03-13T09:44:18.075Z,1.75
2023-03-13T09:46:55.666Z,1.34
2023-03-13T09:49:28.645Z,0.97
2023-03-13T09:52:11.095Z,1.08
2023-03-13T09:55:00.475Z,1.11
2023-03-13T09:57:30.965Z,1.44
2023-03-13T10:00:21.011Z,1.21
2023-03-13T10:03:05.767Z,1.21
2023-03-13T10:05:33.697Z,1.85
2023-03-13T10:08:17.179Z,1.39
2023-03-13T10:10:50.370Z,1.38
2023-03-13T10:13:28.153Z,1.35
2023-03-13T10:16:04.403Z,1.38
2023-03-13T10:18:32.835Z,1.38
2023-03-13T10:21:12.181Z,1.20
2023-03-13T10:23:53.562Z,1.38
2023-03-13T10:26:27.145Z,1.51
2023-03-13T10:28:56.339Z,1.53
2023-03-13T10:31:32.450Z,1.26
2023-03-13T10:34:11.383Z,1.31
2023-03-13T10:36:45.479Z,1.73
2023-03-13T10:39:21.368Z,1.57
2023-03-13T10:41:59.698Z,1.76
2023-03-13T10:44:32.492Z,1.40
2023-03-13T10:47:01.859Z,1.33
2023-03-13T10:49:32.338Z,1.52
2023-03-13T10:52:02.205Z,1.38
2023-03-13T10:54:34.826Z,1.57
2023-03-13T10:57:32.098Z,1.93
2023-03-13T10:59:59.555Z,1.86
2023-03-13T11:02:37.628Z,1.70
2023-03-13T11:05:23.061Z,1.41
2023-03-13T11:07:51.016Z,1.68
2023-03-13T11:10:24.432Z,1.63
2023-03-13T11:12:53.619Z,1.51
2023-03-13T11:15:25.783Z,1.30
2023-03-13T11:18:02.929Z,1.25
2023-03-13T11:20:44.066Z,1.56
2023-03-13T11:23:25.522Z,1.71
2023-03-13T11:26:33.360Z,1.67
2023-03-13T11:29:24.480Z,1.28
2023-03-13T11:32:00.008Z,1.30
2023-03-13T11:34:48.289Z,1.30
2023-03-13T11:37:19.757Z,1.36
2023-03-13T11:40:04.523Z,1.95
2023-03-13T11:43:25.182Z,1.95
2023-03-13T11:46:14.232Z,1.45
2023-03-13T11:48:57.983Z,1.65
2023-03-13T11:51:36.052Z,1.65
2023-03-13T11:54:26.293Z,1.40
2023-03-13T11:56:58.040Z,1.49
2023-03-13T11:59:40.877Z,1.72
2023-03-13T12:02:33.172Z,2.23
2023-03-13T12:05:14.022Z,1.61
2023-03-13T12:07:57.180Z,1.84
2023-03-13T12:10:23.989Z,1.88
2023-03-13T12:13:05.374Z,1.83
2023-03-13T12:15:41.634Z,1.65
2023-03-13T12:18:33.917Z,1.72
2023-03-13T12:21:19.717Z,1.71
2023-03-13T12:24:00.496Z,2.34
2023-03-13T12:26:41.320Z,1.49
2023-03-13T12:29:13.870Z,1.50
2023-03-13T12:31:43.690Z,1.25
2023-03-13T12:34:13.114Z,1.21
2023-03-13T12:36:56.269Z,1.33
2023-03-13T12:39:29.246Z,1.31
2023-03-13T12:42:20.725Z,1.32
2023-03-13T12:44:47.681Z,1.35
2023-03-13T12:47:49.758Z,1.33
2023-03-13T12:50:35.421Z,1.12
2023-03-13T12:53:24.601Z,1.60
2023-03-13T12:56:10.372Z,1.37
2023-03-13T12:58:55.845Z,1.50
2023-03-13T13:01:41.220Z,1.60
2023-03-13T13:04:22.633Z,1.52
2023-03-13T13:07:01.132Z,1.61
2023-03-13T13:09:34.935Z,1.40
2023-03-13T13:12:20.461Z,1.47
2023-03-13T13:14:49.641Z,1.29
2023-03-13T13:17:47.418Z,1.33
2023-03-13T13:20:25.881Z,1.48
2023-03-13T13:22:53.992Z,1.38
2023-03-13T13:25:34.221Z,1.39
2023-03-13T13:28:20.753Z,1.48
2023-03-13T13:30:52.908Z,1.70
2023-03-13T13:33:21.016Z,1.43
2023-03-13T13:36:10.156Z,1.70
2023-03-13T13:38:39.048Z,1.50
2023-03-13T13:41:11.248Z,1.23
2023-03-13T13:43:43.693Z,1.25
2023-03-13T13:46:31.775Z,1.30
2023-03-13T13:49:07.509Z,1.13
2023-03-13T13:51:37.771Z,1.23
2023-03-13T13:54:31.699Z,1.25
2023-03-13T13:57:08.670Z,1.55
2023-03-13T13:59:44.025Z,0.99
2023-03-13T14:02:25.520Z,1.11
2023-03-13T14:04:57.720Z,1.61
2023-03-13T14:07:31.425Z,1.23
2023-03-13T14:10:01.857Z,1.14
2023-03-13T14:12:36.031Z,1.31
2023-03-13T14:15:19.138Z,1.37
2023-03-13T14:17:52.137Z,1.39
2023-03-13T14:20:26.933Z,1.22
2023-03-13T14:22:55.517Z,1.82
2023-03-13T14:25:24.443Z,1.31
2023-03-13T14:27:53.143Z,1.34
2023-03-13T14:30:21.995Z,1.35
2023-03-13T14:32:50.429Z,1.08
2023-03-13T14:35:19.456Z,1.01
2023-03-13T14:37:51.490Z,1.12
2023-03-13T14:40:17.925Z,1.35
2023-03-13T14:42:50.974Z,1.17
2023-03-13T14:45:25.463Z,1.03
2023-03-13T14:47:53.386Z,0.89
2023-03-13T14:50:26.262Z,1.11
2023-03-13T14:52:59.845Z,1.34
2023-03-13T14:55:30.281Z,1.05
2023-03-13T14:58:00.007Z,1.23
2023-03-13T15:00:42.300Z,1.10
2023-03-13T15:03:18.761Z,0.94
2023-03-13T15:06:05.709Z,1.07
2023-03-13T15:08:33.278Z,1.13
2023-03-13T15:11:00.745Z,1.34
2023-03-13T15:13:30.253Z,0.86
2023-03-13T15:15:56.846Z,0.98
2023-03-13T15:18:34.715Z,1.25
2023-03-13T15:21:23.197Z,1.27
2023-03-13T15:24:01.779Z,0.99
2023-03-13T15:26:29.507Z,0.87
2023-03-13T15:28:56.215Z,0.96
2023-03-13T15:31:27.954Z,1.00
2023-03-13T15:33:58.542Z,0.98
2023-03-13T15:36:27.047Z,1.13
2023-03-13T15:38:54.138Z,1.24
2023-03-13T15:41:21.639Z,1.17
2023-03-13T15:43:48.464Z,1.14
2023-03-13T15:46:15.178Z,0.91
2023-03-13T15:48:42.023Z,1.15
2023-03-13T15:51:13.674Z,1.32
2023-03-13T15:53:41.645Z,1.04
2023-03-13T15:56:19.489Z,0.90
2023-03-13T15:58:47.464Z,0.97
2023-03-13T16:01:16.764Z,1.06
2023-03-13T16:03:43.349Z,1.38
2023-03-13T16:06:19.063Z,1.46
2023-03-13T16:08:46.198Z,1.00
2023-03-13T16:11:15.211Z,1.13
2023-03-13T16:13:41.929Z,1.29
2023-03-13T16:16:19.394Z,1.28
2023-03-13T16:18:47.081Z,1.07
2023-03-13T16:21:20.342Z,1.09
2023-03-13T16:23:47.275Z,1.12
2023-03-13T16:26:17.905Z,1.15
2023-03-13T16:28:44.821Z,1.22
2023-03-13T16:31:23.738Z,1.22
2023-03-13T16:33:53.841Z,1.37
2023-03-13T16:36:24.422Z,1.08
2023-03-13T16:38:51.718Z,1.09
2023-03-13T16:41:23.918Z,1.27
2023-03-13T16:43:51.268Z,1.05
2023-03-13T16:46:20.915Z,1.06
2023-03-13T16:48:49.221Z,1.32
2023-03-13T16:51:19.631Z,1.16
2023-03-13T16:53:47.862Z,1.12
2023-03-13T16:56:33.414Z,1.10
2023-03-13T16:59:01.599Z,1.19
2023-03-13T17:01:28.557Z,1.06
2023-03-13T17:03:56.484Z,1.10
2023-03-13T17:06:28.595Z,1.31
2023-03-13T17:08:56.053Z,1.21
2023-03-13T17:11:23.728Z,1.18
2023-03-13T17:13:52.565Z,1.12
2023-03-13T17:16:33.701Z,1.17
2023-03-13T17:19:02.078Z,1.19
2023-03-13T17:21:30.665Z,1.21
2023-03-13T17:23:57.445Z,1.41
2023-03-13T17:26:27.213Z,1.49
2023-03-13T17:28:56.721Z,1.43
2023-03-13T17:31:25.704Z,1.50
2023-03-13T17:33:52.230Z,1.47
2023-03-13T17:36:23.063Z,1.51
2023-03-13T17:38:52.845Z,1.54
2023-03-13T17:41:22.745Z,1.57
2023-03-13T17:43:49.853Z,1.89
2023-03-13T17:46:20.721Z,1.81
2023-03-13T17:48:49.884Z,1.97
2023-03-13T17:51:25.908Z,1.86
2023-03-13T17:53:54.349Z,1.96
2023-03-13T17:56:30.036Z,2.08
2023-03-13T17:58:59.487Z,1.72
2023-03-13T18:01:31.505Z,2.70
2023-03-13T18:03:58.533Z,2.63
2023-03-13T18:06:31.036Z,2.17
2023-03-13T18:09:01.937Z,2.12
2023-03-13T18:11:29.049Z,2.56
2023-03-13T18:13:55.559Z,2.06
2023-03-13T18:16:28.843Z,2.06
2023-03-13T18:18:55.779Z,1.92
2023-03-13T18:21:24.169Z,2.15
2023-03-13T18:23:50.682Z,2.18
2023-03-13T18:26:29.225Z,2.33
2023-03-13T18:28:55.787Z,2.70
2023-03-13T18:31:22.283Z,2.65
2023-03-13T18:33:48.767Z,2.20
2023-03-13T18:36:18.427Z,2.68
2023-03-13T18:38:46.535Z,2.27
2023-03-13T18:41:13.186Z,2.50
2023-03-13T18:43:39.711Z,2.45
2023-03-13T18:46:11.482Z,2.61
2023-03-13T18:48:37.969Z,2.92
2023-03-13T18:51:04.479Z,2.80
2023-03-13T18:53:30.962Z,2.70
2023-03-13T18:56:09.596Z,2.68
2023-03-13T18:58:36.239Z,3.00
2023-03-13T19:01:02.810Z,2.91
2023-03-13T19:03:29.287Z,2.72
2023-03-13T19:05:55.763Z,2.66
2023-03-13T19:08:22.232Z,2.76
2023-03-13T19:10:48.693Z,3.29
2023-03-13T19:13:15.202Z,2.67
2023-03-13T19:15:41.660Z,2.88
2023-03-13T19:18:11.551Z,3.63
2023-03-13T19:20:38.192Z,3.28
2023-03-13T19:23:04.644Z,3.40
2023-03-13T19:25:31.103Z,3.38
2023-03-13T19:27:57.587Z,3.53
2023-03-13T19:30:32.105Z,3.66
2023-03-13T19:32:58.842Z,3.49
2023-03-13T19:35:25.422Z,3.40
2023-03-13T19:37:51.999Z,4.00
2023-03-13T19:40:25.186Z,3.94
2023-03-13T19:42:51.731Z,3.98
2023-03-13T19:45:18.432Z,3.70
2023-03-13T19:47:45.178Z,3.23
2023-03-13T19:50:23.263Z,3.78
2023-03-13T19:52:49.767Z,4.14
2023-03-13T19:55:16.487Z,4.17
2023-03-13T19:57:43.042Z,4.12
2023-03-13T20:00:21.705Z,3.83
2023-03-13T20:02:48.495Z,3.75
2023-03-13T20:05:15.129Z,4.14
2023-03-13T20:07:41.637Z,4.03
2023-03-13T20:10:08.820Z,3.96
2023-03-13T20:12:35.334Z,3.74
2023-03-13T20:15:01.823Z,3.69
2023-03-13T20:17:28.331Z,3.68
2023-03-13T20:19:54.837Z,4.56
2023-03-13T20:22:21.341Z,3.62
2023-03-13T20:24:47.801Z,3.83
2023-03-13T20:27:14.351Z,3.77
2023-03-13T20:29:41.051Z,3.75
2023-03-13T20:32:07.875Z,3.77
2023-03-13T20:34:34.763Z,3.71
2023-03-13T20:37:01.317Z,3.78
2023-03-13T20:39:28.040Z,3.99
2023-03-13T20:41:54.682Z,3.66
2023-03-13T20:44:21.137Z,3.21
2023-03-13T20:46:47.723Z,3.29
2023-03-13T20:49:14.485Z,3.09
2023-03-13T20:51:40.977Z,2.98
2023-03-13T20:54:07.495Z,2.44
2023-03-13T20:56:33.953Z,2.47
2023-03-13T20:59:00.423Z,2.33
2023-03-13T21:01:27.595Z,2.10
2023-03-13T21:03:54.547Z,2.01
2023-03-13T21:06:21.049Z,1.75
2023-03-13T21:08:47.558Z,1.72
2023-03-13T21:11:20.021Z,1.31
2023-03-13T21:13:47.576Z,1.19
2023-03-13T21:16:15.272Z,1.27
2023-03-13T21:18:41.901Z,1.13
2023-03-13T21:21:12.723Z,1.05
2023-03-13T21:23:39.179Z,1.01
2023-03-13T21:26:06.363Z,0.83
2023-03-13T21:28:33.002Z,0.68
2023-03-13T21:31:09.146Z,0.53
2023-03-13T21:33:35.741Z,0.53
2023-03-13T21:36:02.309Z,0.42
2023-03-13T21:38:28.854Z,0.35
2023-03-13T21:40:55.452Z,0.32
2023-03-13T21:43:21.955Z,0.25
2023-03-13T21:45:48.594Z,0.20
2023-03-13T21:48:15.075Z,0.15
2023-03-13T21:50:41.536Z,0.22
2023-03-13T21:53:08.074Z,0.25
2023-03-13T21:55:34.511Z,0.40
2023-03-13T21:58:00.997Z,0.39
2023-03-13T22:00:27.529Z,0.33
2023-03-13T22:02:53.984Z,0.38
2023-03-13T22:05:20.488Z,0.35
2023-03-13T22:07:46.946Z,0.27
2023-03-13T22:10:13.395Z,0.35
2023-03-13T22:12:39.947Z,0.41
2023-03-13T22:15:07.047Z,0.56
2023-03-13T22:17:33.552Z,0.84
2023-03-13T22:20:00.019Z,0.34
2023-03-13T22:22:26.491Z,0.39
2023-03-13T22:24:52.982Z,0.44
2023-03-13T22:27:19.507Z,0.31
2023-03-13T22:29:46.010Z,0.42
2023-03-13T22:32:12.483Z,0.46
2023-03-13T22:34:38.995Z,0.45
2023-03-13T22:37:05.507Z,0.44
2023-03-13T22:39:32.126Z,0.49
2023-03-13T22:41:58.596Z,0.45
2023-03-13T22:44:25.042Z,0.58
2023-03-13T22:46:51.495Z,0.52
2023-03-13T22:49:17.954Z,0.67
2023-03-13T22:51:44.389Z,0.48
2023-03-13T22:54:10.848Z,0.49
2023-03-13T22:56:37.365Z,0.40
2023-03-13T22:59:03.835Z,0.38
2023-03-13T23:01:30.359Z,0.46
2023-03-13T23:03:56.874Z,0.47
2023-03-13T23:06:25.662Z,0.69
2023-03-13T23:08:52.984Z,0.56
2023-03-13T23:11:19.924Z,0.51
2023-03-13T23:13:46.491Z,0.59
2023-03-13T23:16:13.258Z,0.60
2023-03-13T23:18:39.869Z,0.52
2023-03-13T23:21:10.097Z,0.48
2023-03-13T23:23:37.030Z,0.47
2023-03-13T23:26:06.092Z,0.45
2023-03-13T23:28:33.873Z,0.54
2023-03-13T23:31:00.423Z,0.45
2023-03-13T23:33:28.321Z,0.40
2023-03-13T23:35:54.813Z,0.47
2023-03-13T23:38:21.326Z,0.45
2023-03-13T23:40:47.785Z,0.40
2023-03-13T23:43:14.244Z,0.44
2023-03-13T23:45:40.704Z,0.49
2023-03-13T23:48:07.164Z,0.40
2023-03-13T23:50:33.624Z,0.43
2023-03-13T23:53:00.114Z,0.50
2023-03-13T23:55:26.701Z,0.48
2023-03-13T23:57:53.167Z,0.37
